sensor_id;sensor_type;location;lat;lon;timestamp;P1;durP1;ratioP1;P2;durP2;ratioP2
12812;SDS011;6471;50.932;6.934;2023-07-20T00:01:27;2.53;;;1.70;;
12812;SDS011;6471;50.932;6.934;2023-07-20T00:03:53;1.93;;;1.57;;
12812;SDS011;6471;50.932;6.934;2023-07-20T00:06:29;2.20;;;1.90;;
12812;SDS011;6471;50.932;6.934;2023-07-20T00:08:55;2.43;;;1.80;;
12812;SDS011;6471;50.932;6.934;2023-07-20T00:11:25;2.93;;;1.93;;
12812;SDS011;6471;50.932;6.934;2023-07-20T00:13:51;3.63;;;2.20;;
12812;SDS011;6471;50.932;6.934;2023-07-20T00:16:17;2.10;;;1.83;;
12812;SDS011;6471;50.932;6.934;2023-07-20T00:18:43;2.80;;;1.87;;
12812;SDS011;6471;50.932;6.934;2023-07-20T00:21:09;2.10;;;1.87;;
12812;SDS011;6471;50.932;6.934;2023-07-20T00:23:35;2.30;;;1.87;;
12812;SDS011;6471;50.932;6.934;2023-07-20T00:26:02;1.90;;;1.70;;
12812;SDS011;6471;50.932;6.934;2023-07-20T00:28:28;2.63;;;1.70;;
12812;SDS011;6471;50.932;6.934;2023-07-20T00:30:54;1.97;;;1.70;;
12812;SDS011;6471;50.932;6.934;2023-07-20T00:33:20;2.03;;;1.83;;
12812;SDS011;6471;50.932;6.934;2023-07-20T00:35:46;2.97;;;1.63;;
12812;SDS011;6471;50.932;6.934;2023-07-20T00:38:12;2.10;;;1.90;;
12812;SDS011;6471;50.932;6.934;2023-07-20T00:40:39;2.37;;;1.70;;
12812;SDS011;6471;50.932;6.934;2023-07-20T00:43:05;3.10;;;2.00;;
12812;SDS011;6471;50.932;6.934;2023-07-20T00:45:31;2.70;;;1.90;;
12812;SDS011;6471;50.932;6.934;2023-07-20T00:47:58;2.07;;;1.83;;
12812;SDS011;6471;50.932;6.934;2023-07-20T00:50:24;2.17;;;1.97;;
12812;SDS011;6471;50.932;6.934;2023-07-20T00:52:51;3.67;;;2.20;;
12812;SDS011;6471;50.932;6.934;2023-07-20T00:55:21;3.20;;;2.20;;
12812;SDS011;6471;50.932;6.934;2023-07-20T00:57:47;2.00;;;1.73;;
12812;SDS011;6471;50.932;6.934;2023-07-20T01:00:13;3.07;;;1.87;;
12812;SDS011;6471;50.932;6.934;2023-07-20T01:02:40;2.43;;;2.00;;
12812;SDS011;6471;50.932;6.934;2023-07-20T01:05:06;1.90;;;1.70;;
12812;SDS011;6471;50.932;6.934;2023-07-20T01:07:37;3.10;;;2.17;;
12812;SDS011;6471;50.932;6.934;2023-07-20T01:12:49;2.07;;;1.87;;
12812;SDS011;6471;50.932;6.934;2023-07-20T01:15:17;3.07;;;2.13;;
12812;SDS011;6471;50.932;6.934;2023-07-20T01:17:43;2.57;;;1.97;;
12812;SDS011;6471;50.932;6.934;2023-07-20T01:20:10;2.50;;;2.00;;
12812;SDS011;6471;50.932;6.934;2023-07-20T01:25:25;2.73;;;2.00;;
12812;SDS011;6471;50.932;6.934;2023-07-20T01:30:26;2.47;;;2.03;;
12812;SDS011;6471;50.932;6.934;2023-07-20T01:32:58;2.60;;;1.97;;
12812;SDS011;6471;50.932;6.934;2023-07-20T01:35:27;2.37;;;1.70;;
12812;SDS011;6471;50.932;6.934;2023-07-20T01:37:54;3.03;;;1.80;;
12812;SDS011;6471;50.932;6.934;2023-07-20T01:40:21;2.03;;;1.87;;
12812;SDS011;6471;50.932;6.934;2023-07-20T01:42:48;2.93;;;1.80;;
12812;SDS011;6471;50.932;6.934;2023-07-20T01:45:14;1.70;;;1.60;;
12812;SDS011;6471;50.932;6.934;2023-07-20T01:47:40;2.70;;;1.90;;
12812;SDS011;6471;50.932;6.934;2023-07-20T01:50:09;2.83;;;1.90;;
12812;SDS011;6471;50.932;6.934;2023-07-20T01:52:35;2.30;;;1.97;;
12812;SDS011;6471;50.932;6.934;2023-07-20T01:55:01;2.20;;;1.80;;
12812;SDS011;6471;50.932;6.934;2023-07-20T01:57:27;1.90;;;1.70;;
12812;SDS011;6471;50.932;6.934;2023-07-20T01:59:53;2.50;;;1.90;;
12812;SDS011;6471;50.932;6.934;2023-07-20T02:02:19;2.83;;;1.90;;
12812;SDS011;6471;50.932;6.934;2023-07-20T02:04:45;1.60;;;1.50;;
12812;SDS011;6471;50.932;6.934;2023-07-20T02:07:11;1.70;;;1.60;;
12812;SDS011;6471;50.932;6.934;2023-07-20T02:09:37;2.20;;;1.70;;
12812;SDS011;6471;50.932;6.934;2023-07-20T02:12:04;2.50;;;2.10;;
12812;SDS011;6471;50.932;6.934;2023-07-20T02:14:30;2.50;;;1.90;;
12812;SDS011;6471;50.932;6.934;2023-07-20T02:16:56;2.13;;;1.93;;
12812;SDS011;6471;50.932;6.934;2023-07-20T02:19:24;2.97;;;1.97;;
12812;SDS011;6471;50.932;6.934;2023-07-20T02:21:51;2.63;;;2.10;;
12812;SDS011;6471;50.932;6.934;2023-07-20T02:24:17;2.83;;;2.07;;
12812;SDS011;6471;50.932;6.934;2023-07-20T02:26:43;2.70;;;2.30;;
12812;SDS011;6471;50.932;6.934;2023-07-20T02:29:10;2.37;;;2.00;;
12812;SDS011;6471;50.932;6.934;2023-07-20T02:31:38;2.37;;;2.10;;
12812;SDS011;6471;50.932;6.934;2023-07-20T02:34:05;3.20;;;2.30;;
12812;SDS011;6471;50.932;6.934;2023-07-20T02:36:32;2.57;;;2.30;;
12812;SDS011;6471;50.932;6.934;2023-07-20T02:38:58;3.40;;;2.60;;
12812;SDS011;6471;50.932;6.934;2023-07-20T02:41:24;3.00;;;2.40;;
12812;SDS011;6471;50.932;6.934;2023-07-20T02:43:50;2.70;;;2.20;;
12812;SDS011;6471;50.932;6.934;2023-07-20T02:46:16;3.30;;;2.43;;
12812;SDS011;6471;50.932;6.934;2023-07-20T02:48:42;2.83;;;2.13;;
12812;SDS011;6471;50.932;6.934;2023-07-20T02:51:08;3.13;;;2.17;;
12812;SDS011;6471;50.932;6.934;2023-07-20T02:53:35;2.17;;;1.87;;
12812;SDS011;6471;50.932;6.934;2023-07-20T02:56:01;2.40;;;2.20;;
12812;SDS011;6471;50.932;6.934;2023-07-20T02:58:27;2.53;;;2.20;;
12812;SDS011;6471;50.932;6.934;2023-07-20T03:00:53;2.23;;;1.90;;
12812;SDS011;6471;50.932;6.934;2023-07-20T03:03:19;2.63;;;1.97;;
12812;SDS011;6471;50.932;6.934;2023-07-20T03:05:45;3.83;;;2.17;;
12812;SDS011;6471;50.932;6.934;2023-07-20T03:08:11;2.47;;;2.00;;
12812;SDS011;6471;50.932;6.934;2023-07-20T03:10:38;2.43;;;2.00;;
12812;SDS011;6471;50.932;6.934;2023-07-20T03:13:05;2.10;;;1.70;;
12812;SDS011;6471;50.932;6.934;2023-07-20T03:15:31;2.97;;;1.93;;
12812;SDS011;6471;50.932;6.934;2023-07-20T03:17:58;2.17;;;1.90;;
12812;SDS011;6471;50.932;6.934;2023-07-20T03:20:24;2.50;;;1.83;;
12812;SDS011;6471;50.932;6.934;2023-07-20T03:22:50;2.50;;;1.93;;
12812;SDS011;6471;50.932;6.934;2023-07-20T03:25:16;2.20;;;1.80;;
12812;SDS011;6471;50.932;6.934;2023-07-20T03:27:42;2.93;;;2.27;;
12812;SDS011;6471;50.932;6.934;2023-07-20T03:30:09;2.20;;;1.80;;
12812;SDS011;6471;50.932;6.934;2023-07-20T03:32:36;2.40;;;1.90;;
12812;SDS011;6471;50.932;6.934;2023-07-20T03:35:02;3.13;;;2.20;;
12812;SDS011;6471;50.932;6.934;2023-07-20T03:37:28;2.63;;;2.07;;
12812;SDS011;6471;50.932;6.934;2023-07-20T03:39:54;2.83;;;2.00;;
12812;SDS011;6471;50.932;6.934;2023-07-20T03:42:20;2.97;;;2.07;;
12812;SDS011;6471;50.932;6.934;2023-07-20T03:44:46;3.07;;;2.17;;
12812;SDS011;6471;50.932;6.934;2023-07-20T03:47:12;1.90;;;1.70;;
12812;SDS011;6471;50.932;6.934;2023-07-20T03:49:38;2.33;;;2.07;;
12812;SDS011;6471;50.932;6.934;2023-07-20T03:52:04;1.80;;;1.63;;
12812;SDS011;6471;50.932;6.934;2023-07-20T03:54:30;2.10;;;1.90;;
12812;SDS011;6471;50.932;6.934;2023-07-20T03:56:57;2.73;;;1.87;;
12812;SDS011;6471;50.932;6.934;2023-07-20T03:59:23;2.67;;;2.13;;
12812;SDS011;6471;50.932;6.934;2023-07-20T04:01:49;2.10;;;1.83;;
12812;SDS011;6471;50.932;6.934;2023-07-20T04:04:15;2.33;;;2.10;;
12812;SDS011;6471;50.932;6.934;2023-07-20T04:06:42;2.67;;;1.80;;
12812;SDS011;6471;50.932;6.934;2023-07-20T04:09:09;3.03;;;2.30;;
12812;SDS011;6471;50.932;6.934;2023-07-20T04:11:35;4.47;;;2.20;;
12812;SDS011;6471;50.932;6.934;2023-07-20T04:14:01;2.97;;;2.10;;
12812;SDS011;6471;50.932;6.934;2023-07-20T04:16:27;3.07;;;2.27;;
12812;SDS011;6471;50.932;6.934;2023-07-20T04:18:57;2.70;;;2.17;;
12812;SDS011;6471;50.932;6.934;2023-07-20T04:21:23;3.27;;;2.10;;
12812;SDS011;6471;50.932;6.934;2023-07-20T04:23:49;3.23;;;2.20;;
12812;SDS011;6471;50.932;6.934;2023-07-20T04:26:15;3.37;;;2.10;;
12812;SDS011;6471;50.932;6.934;2023-07-20T04:28:41;3.57;;;2.03;;
12812;SDS011;6471;50.932;6.934;2023-07-20T04:31:13;3.93;;;2.40;;
12812;SDS011;6471;50.932;6.934;2023-07-20T04:33:39;4.63;;;2.50;;
12812;SDS011;6471;50.932;6.934;2023-07-20T04:36:06;3.20;;;2.10;;
12812;SDS011;6471;50.932;6.934;2023-07-20T04:38:32;2.97;;;2.40;;
12812;SDS011;6471;50.932;6.934;2023-07-20T04:40:58;3.13;;;2.50;;
12812;SDS011;6471;50.932;6.934;2023-07-20T04:43:24;3.30;;;2.27;;
12812;SDS011;6471;50.932;6.934;2023-07-20T04:45:51;4.37;;;2.37;;
12812;SDS011;6471;50.932;6.934;2023-07-20T04:48:17;3.60;;;1.90;;
12812;SDS011;6471;50.932;6.934;2023-07-20T04:50:46;2.33;;;1.83;;
12812;SDS011;6471;50.932;6.934;2023-07-20T04:53:12;5.63;;;2.57;;
12812;SDS011;6471;50.932;6.934;2023-07-20T04:55:39;4.23;;;2.87;;
12812;SDS011;6471;50.932;6.934;2023-07-20T04:58:05;4.00;;;2.40;;
12812;SDS011;6471;50.932;6.934;2023-07-20T05:00:34;2.70;;;2.30;;
12812;SDS011;6471;50.932;6.934;2023-07-20T05:03:00;5.33;;;2.77;;
12812;SDS011;6471;50.932;6.934;2023-07-20T05:05:26;3.50;;;2.20;;
12812;SDS011;6471;50.932;6.934;2023-07-20T05:07:52;3.77;;;2.50;;
12812;SDS011;6471;50.932;6.934;2023-07-20T05:10:19;5.83;;;2.73;;
12812;SDS011;6471;50.932;6.934;2023-07-20T05:12:45;4.60;;;2.40;;
12812;SDS011;6471;50.932;6.934;2023-07-20T05:15:11;3.67;;;2.70;;
12812;SDS011;6471;50.932;6.934;2023-07-20T05:17:37;3.53;;;2.53;;
12812;SDS011;6471;50.932;6.934;2023-07-20T05:20:04;4.37;;;2.80;;
12812;SDS011;6471;50.932;6.934;2023-07-20T05:22:30;3.63;;;2.70;;
12812;SDS011;6471;50.932;6.934;2023-07-20T05:24:57;4.57;;;3.00;;
12812;SDS011;6471;50.932;6.934;2023-07-20T05:27:23;4.07;;;2.73;;
12812;SDS011;6471;50.932;6.934;2023-07-20T05:29:49;3.63;;;2.90;;
12812;SDS011;6471;50.932;6.934;2023-07-20T05:32:15;4.67;;;3.00;;
12812;SDS011;6471;50.932;6.934;2023-07-20T05:34:41;4.00;;;2.93;;
12812;SDS011;6471;50.932;6.934;2023-07-20T05:37:07;5.73;;;3.30;;
12812;SDS011;6471;50.932;6.934;2023-07-20T05:39:33;4.17;;;3.20;;
12812;SDS011;6471;50.932;6.934;2023-07-20T05:41:59;6.83;;;3.50;;
12812;SDS011;6471;50.932;6.934;2023-07-20T05:44:25;5.50;;;3.00;;
12812;SDS011;6471;50.932;6.934;2023-07-20T05:46:52;4.73;;;3.13;;
12812;SDS011;6471;50.932;6.934;2023-07-20T05:49:18;5.70;;;3.87;;
12812;SDS011;6471;50.932;6.934;2023-07-20T05:51:44;7.77;;;3.90;;
12812;SDS011;6471;50.932;6.934;2023-07-20T05:54:11;8.23;;;4.40;;
12812;SDS011;6471;50.932;6.934;2023-07-20T05:56:37;4.43;;;3.60;;
12812;SDS011;6471;50.932;6.934;2023-07-20T05:59:03;6.10;;;4.47;;
12812;SDS011;6471;50.932;6.934;2023-07-20T06:01:29;6.63;;;4.60;;
12812;SDS011;6471;50.932;6.934;2023-07-20T06:03:55;9.10;;;5.43;;
12812;SDS011;6471;50.932;6.934;2023-07-20T06:06:21;11.10;;;5.80;;
12812;SDS011;6471;50.932;6.934;2023-07-20T06:08:47;6.07;;;4.53;;
12812;SDS011;6471;50.932;6.934;2023-07-20T06:11:13;6.97;;;4.13;;
12812;SDS011;6471;50.932;6.934;2023-07-20T06:13:40;7.50;;;4.43;;
12812;SDS011;6471;50.932;6.934;2023-07-20T06:16:08;6.40;;;4.93;;
12812;SDS011;6471;50.932;6.934;2023-07-20T06:18:34;6.37;;;4.50;;
12812;SDS011;6471;50.932;6.934;2023-07-20T06:21:00;6.87;;;4.43;;
12812;SDS011;6471;50.932;6.934;2023-07-20T06:23:26;10.90;;;5.33;;
12812;SDS011;6471;50.932;6.934;2023-07-20T06:25:53;9.60;;;5.70;;
12812;SDS011;6471;50.932;6.934;2023-07-20T06:28:19;7.37;;;5.80;;
12812;SDS011;6471;50.932;6.934;2023-07-20T06:30:45;9.07;;;6.80;;
12812;SDS011;6471;50.932;6.934;2023-07-20T06:33:11;9.07;;;6.00;;
12812;SDS011;6471;50.932;6.934;2023-07-20T06:35:37;9.50;;;6.33;;
12812;SDS011;6471;50.932;6.934;2023-07-20T06:38:03;8.10;;;5.77;;
12812;SDS011;6471;50.932;6.934;2023-07-20T06:40:30;8.13;;;5.10;;
12812;SDS011;6471;50.932;6.934;2023-07-20T06:42:56;4.77;;;4.37;;
12812;SDS011;6471;50.932;6.934;2023-07-20T06:45:22;5.63;;;4.53;;
12812;SDS011;6471;50.932;6.934;2023-07-20T06:47:48;9.33;;;6.00;;
12812;SDS011;6471;50.932;6.934;2023-07-20T06:50:17;6.40;;;4.63;;
12812;SDS011;6471;50.932;6.934;2023-07-20T06:52:43;7.47;;;4.83;;
12812;SDS011;6471;50.932;6.934;2023-07-20T06:55:09;6.53;;;4.00;;
12812;SDS011;6471;50.932;6.934;2023-07-20T06:57:38;5.73;;;4.40;;
12812;SDS011;6471;50.932;6.934;2023-07-20T07:00:04;7.93;;;5.23;;
12812;SDS011;6471;50.932;6.934;2023-07-20T07:02:31;6.80;;;5.27;;
12812;SDS011;6471;50.932;6.934;2023-07-20T07:04:58;6.50;;;4.53;;
12812;SDS011;6471;50.932;6.934;2023-07-20T07:07:24;7.50;;;4.43;;
12812;SDS011;6471;50.932;6.934;2023-07-20T07:09:50;8.47;;;4.73;;
12812;SDS011;6471;50.932;6.934;2023-07-20T07:12:16;5.97;;;5.17;;
12812;SDS011;6471;50.932;6.934;2023-07-20T07:14:42;7.50;;;4.63;;
12812;SDS011;6471;50.932;6.934;2023-07-20T07:17:08;7.17;;;4.67;;
12812;SDS011;6471;50.932;6.934;2023-07-20T07:19:34;6.43;;;4.20;;
12812;SDS011;6471;50.932;6.934;2023-07-20T07:22:01;4.33;;;3.53;;
12812;SDS011;6471;50.932;6.934;2023-07-20T07:24:28;13.20;;;4.13;;
12812;SDS011;6471;50.932;6.934;2023-07-20T07:27:01;8.10;;;4.60;;
12812;SDS011;6471;50.932;6.934;2023-07-20T07:29:28;8.83;;;5.07;;
12812;SDS011;6471;50.932;6.934;2023-07-20T07:31:55;8.60;;;4.70;;
12812;SDS011;6471;50.932;6.934;2023-07-20T07:34:21;9.10;;;5.30;;
12812;SDS011;6471;50.932;6.934;2023-07-20T07:36:47;6.60;;;4.70;;
12812;SDS011;6471;50.932;6.934;2023-07-20T07:39:13;8.17;;;4.87;;
12812;SDS011;6471;50.932;6.934;2023-07-20T07:41:39;6.80;;;4.07;;
12812;SDS011;6471;50.932;6.934;2023-07-20T07:44:05;5.03;;;3.40;;
12812;SDS011;6471;50.932;6.934;2023-07-20T07:46:34;3.90;;;3.50;;
12812;SDS011;6471;50.932;6.934;2023-07-20T07:49:00;6.80;;;4.13;;
12812;SDS011;6471;50.932;6.934;2023-07-20T07:51:26;7.73;;;3.83;;
12812;SDS011;6471;50.932;6.934;2023-07-20T07:53:52;8.37;;;3.90;;
12812;SDS011;6471;50.932;6.934;2023-07-20T07:56:18;5.73;;;4.00;;
12812;SDS011;6471;50.932;6.934;2023-07-20T07:58:51;11.87;;;4.17;;
12812;SDS011;6471;50.932;6.934;2023-07-20T08:01:17;7.53;;;3.70;;
12812;SDS011;6471;50.932;6.934;2023-07-20T08:03:47;5.93;;;3.00;;
12812;SDS011;6471;50.932;6.934;2023-07-20T08:06:13;4.17;;;3.23;;
12812;SDS011;6471;50.932;6.934;2023-07-20T08:08:39;13.47;;;5.07;;
12812;SDS011;6471;50.932;6.934;2023-07-20T08:11:05;4.23;;;3.60;;
12812;SDS011;6471;50.932;6.934;2023-07-20T08:13:31;6.53;;;3.60;;
12812;SDS011;6471;50.932;6.934;2023-07-20T08:15:58;6.77;;;3.90;;
12812;SDS011;6471;50.932;6.934;2023-07-20T08:18:24;8.43;;;3.33;;
12812;SDS011;6471;50.932;6.934;2023-07-20T08:20:50;4.80;;;3.10;;
12812;SDS011;6471;50.932;6.934;2023-07-20T08:23:16;3.33;;;2.20;;
12812;SDS011;6471;50.932;6.934;2023-07-20T08:25:42;4.73;;;2.23;;
12812;SDS011;6471;50.932;6.934;2023-07-20T08:28:13;2.90;;;2.03;;
12812;SDS011;6471;50.932;6.934;2023-07-20T08:30:40;6.82;;;2.88;;
12812;SDS011;6471;50.932;6.934;2023-07-20T08:33:06;5.72;;;2.70;;
12812;SDS011;6471;50.932;6.934;2023-07-20T08:35:33;10.18;;;3.20;;
12812;SDS011;6471;50.932;6.934;2023-07-20T08:37:59;6.80;;;1.98;;
12812;SDS011;6471;50.932;6.934;2023-07-20T08:40:25;3.67;;;2.13;;
12812;SDS011;6471;50.932;6.934;2023-07-20T08:42:51;22.65;;;3.20;;
12812;SDS011;6471;50.932;6.934;2023-07-20T08:45:18;7.13;;;2.40;;
12812;SDS011;6471;50.932;6.934;2023-07-20T08:47:45;6.72;;;2.20;;
12812;SDS011;6471;50.932;6.934;2023-07-20T08:50:11;5.90;;;2.47;;
12812;SDS011;6471;50.932;6.934;2023-07-20T08:52:37;18.05;;;3.72;;
12812;SDS011;6471;50.932;6.934;2023-07-20T08:55:03;12.02;;;2.70;;
12812;SDS011;6471;50.932;6.934;2023-07-20T08:57:31;9.13;;;2.60;;
12812;SDS011;6471;50.932;6.934;2023-07-20T08:59:58;7.13;;;2.00;;
12812;SDS011;6471;50.932;6.934;2023-07-20T09:02:25;3.20;;;1.60;;
12812;SDS011;6471;50.932;6.934;2023-07-20T09:04:52;4.05;;;1.80;;
12812;SDS011;6471;50.932;6.934;2023-07-20T09:07:18;3.00;;;2.00;;
12812;SDS011;6471;50.932;6.934;2023-07-20T09:09:45;11.98;;;2.55;;
12812;SDS011;6471;50.932;6.934;2023-07-20T09:12:17;9.43;;;2.28;;
12812;SDS011;6471;50.932;6.934;2023-07-20T09:14:43;6.43;;;2.20;;
12812;SDS011;6471;50.932;6.934;2023-07-20T09:17:13;4.28;;;2.05;;
12812;SDS011;6471;50.932;6.934;2023-07-20T09:19:46;3.25;;;2.20;;
12812;SDS011;6471;50.932;6.934;2023-07-20T09:22:13;2.92;;;2.00;;
12812;SDS011;6471;50.932;6.934;2023-07-20T09:24:39;2.78;;;1.90;;
12812;SDS011;6471;50.932;6.934;2023-07-20T09:27:06;4.30;;;2.22;;
12812;SDS011;6471;50.932;6.934;2023-07-20T09:29:34;2.38;;;1.83;;
12812;SDS011;6471;50.932;6.934;2023-07-20T09:32:01;6.25;;;2.30;;
12812;SDS011;6471;50.932;6.934;2023-07-20T09:34:28;2.70;;;2.03;;
12812;SDS011;6471;50.932;6.934;2023-07-20T09:36:57;12.03;;;3.00;;
12812;SDS011;6471;50.932;6.934;2023-07-20T09:39:23;3.27;;;2.20;;
12812;SDS011;6471;50.932;6.934;2023-07-20T09:41:50;13.23;;;3.17;;
12812;SDS011;6471;50.932;6.934;2023-07-20T09:44:17;4.37;;;2.20;;
12812;SDS011;6471;50.932;6.934;2023-07-20T09:46:46;5.07;;;1.93;;
12812;SDS011;6471;50.932;6.934;2023-07-20T09:49:13;4.70;;;2.07;;
12812;SDS011;6471;50.932;6.934;2023-07-20T09:51:39;4.60;;;2.67;;
12812;SDS011;6471;50.932;6.934;2023-07-20T09:54:07;11.60;;;2.67;;
12812;SDS011;6471;50.932;6.934;2023-07-20T09:56:34;5.67;;;2.17;;
12812;SDS011;6471;50.932;6.934;2023-07-20T09:59:00;2.57;;;1.67;;
12812;SDS011;6471;50.932;6.934;2023-07-20T10:01:26;1.93;;;1.70;;
12812;SDS011;6471;50.932;6.934;2023-07-20T10:03:55;9.27;;;2.40;;
12812;SDS011;6471;50.932;6.934;2023-07-20T10:06:24;5.97;;;2.00;;
12812;SDS011;6471;50.932;6.934;2023-07-20T10:08:53;4.00;;;1.70;;
12812;SDS011;6471;50.932;6.934;2023-07-20T10:11:20;15.47;;;2.60;;
12812;SDS011;6471;50.932;6.934;2023-07-20T10:13:47;4.23;;;2.07;;
12812;SDS011;6471;50.932;6.934;2023-07-20T10:16:16;3.70;;;1.60;;
12812;SDS011;6471;50.932;6.934;2023-07-20T10:21:30;4.00;;;1.40;;
12812;SDS011;6471;50.932;6.934;2023-07-20T10:23:56;3.00;;;1.70;;
12812;SDS011;6471;50.932;6.934;2023-07-20T10:26:23;2.90;;;1.70;;
12812;SDS011;6471;50.932;6.934;2023-07-20T10:28:49;2.77;;;1.60;;
12812;SDS011;6471;50.932;6.934;2023-07-20T10:31:15;3.23;;;1.63;;
12812;SDS011;6471;50.932;6.934;2023-07-20T10:33:41;1.97;;;1.70;;
12812;SDS011;6471;50.932;6.934;2023-07-20T10:36:09;3.97;;;2.10;;
12812;SDS011;6471;50.932;6.934;2023-07-20T10:41:19;3.70;;;1.50;;
12812;SDS011;6471;50.932;6.934;2023-07-20T10:43:46;1.60;;;1.40;;
12812;SDS011;6471;50.932;6.934;2023-07-20T10:46:12;2.00;;;1.70;;
12812;SDS011;6471;50.932;6.934;2023-07-20T10:51:23;2.00;;;1.60;;
12812;SDS011;6471;50.932;6.934;2023-07-20T10:53:49;1.93;;;1.50;;
12812;SDS011;6471;50.932;6.934;2023-07-20T10:56:20;1.93;;;1.50;;
12812;SDS011;6471;50.932;6.934;2023-07-20T10:58:46;2.73;;;1.70;;
12812;SDS011;6471;50.932;6.934;2023-07-20T11:01:13;4.07;;;1.53;;
12812;SDS011;6471;50.932;6.934;2023-07-20T11:03:39;2.27;;;1.47;;
12812;SDS011;6471;50.932;6.934;2023-07-20T11:09:03;2.90;;;1.80;;
12812;SDS011;6471;50.932;6.934;2023-07-20T11:11:30;3.00;;;1.60;;
12812;SDS011;6471;50.932;6.934;2023-07-20T11:13:57;1.60;;;1.40;;
12812;SDS011;6471;50.932;6.934;2023-07-20T11:16:33;1.70;;;1.50;;
12812;SDS011;6471;50.932;6.934;2023-07-20T11:19:00;1.83;;;1.60;;
12812;SDS011;6471;50.932;6.934;2023-07-20T11:21:26;3.80;;;1.73;;
12812;SDS011;6471;50.932;6.934;2023-07-20T11:23:52;3.87;;;2.27;;
12812;SDS011;6471;50.932;6.934;2023-07-20T11:26:18;4.63;;;3.10;;
12812;SDS011;6471;50.932;6.934;2023-07-20T11:28:51;3.03;;;2.10;;
12812;SDS011;6471;50.932;6.934;2023-07-20T11:31:18;1.87;;;1.60;;
12812;SDS011;6471;50.932;6.934;2023-07-20T11:33:44;2.50;;;1.70;;
12812;SDS011;6471;50.932;6.934;2023-07-20T11:36:10;1.90;;;1.60;;
12812;SDS011;6471;50.932;6.934;2023-07-20T11:38:37;1.40;;;1.30;;
12812;SDS011;6471;50.932;6.934;2023-07-20T11:41:03;1.90;;;1.30;;
12812;SDS011;6471;50.932;6.934;2023-07-20T11:43:30;4.03;;;1.40;;
12812;SDS011;6471;50.932;6.934;2023-07-20T11:45:56;1.70;;;1.17;;
12812;SDS011;6471;50.932;6.934;2023-07-20T11:48:22;1.37;;;1.17;;
12812;SDS011;6471;50.932;6.934;2023-07-20T11:50:48;1.90;;;1.40;;
12812;SDS011;6471;50.932;6.934;2023-07-20T11:53:15;6.00;;;1.70;;
12812;SDS011;6471;50.932;6.934;2023-07-20T11:55:41;4.93;;;1.63;;
12812;SDS011;6471;50.932;6.934;2023-07-20T11:58:08;4.20;;;1.70;;
12812;SDS011;6471;50.932;6.934;2023-07-20T12:00:35;2.93;;;1.40;;
12812;SDS011;6471;50.932;6.934;2023-07-20T12:03:01;2.10;;;1.17;;
12812;SDS011;6471;50.932;6.934;2023-07-20T12:05:35;1.35;;;1.10;;
12812;SDS011;6471;50.932;6.934;2023-07-20T12:08:01;1.67;;;1.23;;
12812;SDS011;6471;50.932;6.934;2023-07-20T12:10:27;5.80;;;1.35;;
12812;SDS011;6471;50.932;6.934;2023-07-20T12:12:54;1.47;;;1.37;;
12812;SDS011;6471;50.932;6.934;2023-07-20T12:15:20;7.65;;;1.98;;
12812;SDS011;6471;50.932;6.934;2023-07-20T12:17:51;4.50;;;1.83;;
12812;SDS011;6471;50.932;6.934;2023-07-20T12:20:58;4.90;;;1.50;;
12812;SDS011;6471;50.932;6.934;2023-07-20T12:23:11;5.47;;;1.80;;
12812;SDS011;6471;50.932;6.934;2023-07-20T12:28:04;2.30;;;1.30;;
12812;SDS011;6471;50.932;6.934;2023-07-20T12:30:31;1.90;;;1.53;;
12812;SDS011;6471;50.932;6.934;2023-07-20T12:32:57;5.33;;;1.50;;
12812;SDS011;6471;50.932;6.934;2023-07-20T12:35:23;6.13;;;1.50;;
12812;SDS011;6471;50.932;6.934;2023-07-20T12:37:49;3.93;;;1.70;;
12812;SDS011;6471;50.932;6.934;2023-07-20T12:40:16;5.40;;;1.73;;
12812;SDS011;6471;50.932;6.934;2023-07-20T12:42:42;1.97;;;1.40;;
12812;SDS011;6471;50.932;6.934;2023-07-20T12:45:09;3.57;;;1.63;;
12812;SDS011;6471;50.932;6.934;2023-07-20T12:47:36;3.57;;;1.60;;
12812;SDS011;6471;50.932;6.934;2023-07-20T12:50:02;4.50;;;1.80;;
12812;SDS011;6471;50.932;6.934;2023-07-20T12:52:31;3.63;;;1.63;;
12812;SDS011;6471;50.932;6.934;2023-07-20T12:54:57;2.30;;;1.40;;
12812;SDS011;6471;50.932;6.934;2023-07-20T12:57:23;2.30;;;1.40;;
12812;SDS011;6471;50.932;6.934;2023-07-20T12:59:50;2.50;;;1.40;;
12812;SDS011;6471;50.932;6.934;2023-07-20T13:02:16;3.33;;;1.70;;
12812;SDS011;6471;50.932;6.934;2023-07-20T13:04:42;1.67;;;1.10;;
12812;SDS011;6471;50.932;6.934;2023-07-20T13:07:09;2.10;;;1.27;;
12812;SDS011;6471;50.932;6.934;2023-07-20T13:09:37;3.43;;;1.30;;
12812;SDS011;6471;50.932;6.934;2023-07-20T13:12:03;2.30;;;1.30;;
12812;SDS011;6471;50.932;6.934;2023-07-20T13:14:29;1.77;;;1.27;;
12812;SDS011;6471;50.932;6.934;2023-07-20T13:16:55;2.77;;;1.60;;
12812;SDS011;6471;50.932;6.934;2023-07-20T13:19:21;1.63;;;1.10;;
12812;SDS011;6471;50.932;6.934;2023-07-20T13:21:47;2.30;;;1.20;;
12812;SDS011;6471;50.932;6.934;2023-07-20T13:24:13;1.43;;;1.27;;
12812;SDS011;6471;50.932;6.934;2023-07-20T13:26:40;1.57;;;1.30;;
12812;SDS011;6471;50.932;6.934;2023-07-20T13:29:06;1.53;;;1.27;;
12812;SDS011;6471;50.932;6.934;2023-07-20T13:31:32;3.80;;;1.70;;
12812;SDS011;6471;50.932;6.934;2023-07-20T13:33:58;5.47;;;1.50;;
12812;SDS011;6471;50.932;6.934;2023-07-20T13:36:24;2.00;;;1.50;;
12812;SDS011;6471;50.932;6.934;2023-07-20T13:38:50;2.70;;;1.60;;
12812;SDS011;6471;50.932;6.934;2023-07-20T13:41:16;1.90;;;1.40;;
12812;SDS011;6471;50.932;6.934;2023-07-20T13:43:42;3.37;;;1.40;;
12812;SDS011;6471;50.932;6.934;2023-07-20T13:46:09;1.80;;;1.50;;
12812;SDS011;6471;50.932;6.934;2023-07-20T13:48:35;1.43;;;1.30;;
12812;SDS011;6471;50.932;6.934;2023-07-20T13:51:01;3.33;;;1.40;;
12812;SDS011;6471;50.932;6.934;2023-07-20T13:53:27;1.57;;;1.30;;
12812;SDS011;6471;50.932;6.934;2023-07-20T13:55:53;2.23;;;1.40;;
12812;SDS011;6471;50.932;6.934;2023-07-20T13:58:19;7.47;;;1.80;;
12812;SDS011;6471;50.932;6.934;2023-07-20T14:00:46;2.30;;;1.57;;
12812;SDS011;6471;50.932;6.934;2023-07-20T14:03:12;5.23;;;1.63;;
12812;SDS011;6471;50.932;6.934;2023-07-20T14:05:38;1.87;;;1.10;;
12812;SDS011;6471;50.932;6.934;2023-07-20T14:08:04;1.80;;;1.40;;
12812;SDS011;6471;50.932;6.934;2023-07-20T14:10:30;3.13;;;1.60;;
12812;SDS011;6471;50.932;6.934;2023-07-20T14:12:56;1.60;;;1.30;;
12812;SDS011;6471;50.932;6.934;2023-07-20T14:15:40;2.83;;;1.30;;
12812;SDS011;6471;50.932;6.934;2023-07-20T14:18:08;2.17;;;1.20;;
12812;SDS011;6471;50.932;6.934;2023-07-20T14:20:34;6.57;;;1.80;;
12812;SDS011;6471;50.932;6.934;2023-07-20T14:23:00;7.30;;;1.90;;
12812;SDS011;6471;50.932;6.934;2023-07-20T14:25:26;16.90;;;3.20;;
12812;SDS011;6471;50.932;6.934;2023-07-20T14:27:52;4.63;;;1.70;;
12812;SDS011;6471;50.932;6.934;2023-07-20T14:30:18;3.73;;;1.73;;
12812;SDS011;6471;50.932;6.934;2023-07-20T14:32:44;2.37;;;1.27;;
12812;SDS011;6471;50.932;6.934;2023-07-20T14:35:10;3.87;;;1.50;;
12812;SDS011;6471;50.932;6.934;2023-07-20T14:37:37;1.60;;;1.10;;
12812;SDS011;6471;50.932;6.934;2023-07-20T14:40:03;6.27;;;1.70;;
12812;SDS011;6471;50.932;6.934;2023-07-20T14:42:30;2.27;;;1.20;;
12812;SDS011;6471;50.932;6.934;2023-07-20T14:44:57;1.97;;;1.20;;
12812;SDS011;6471;50.932;6.934;2023-07-20T14:47:23;1.42;;;1.25;;
12812;SDS011;6471;50.932;6.934;2023-07-20T14:49:49;1.30;;;1.20;;
12812;SDS011;6471;50.932;6.934;2023-07-20T14:52:16;4.27;;;1.40;;
12812;SDS011;6471;50.932;6.934;2023-07-20T14:54:42;2.10;;;1.40;;
12812;SDS011;6471;50.932;6.934;2023-07-20T14:57:08;18.83;;;2.30;;
12812;SDS011;6471;50.932;6.934;2023-07-20T14:59:39;12.40;;;2.15;;
12812;SDS011;6471;50.932;6.934;2023-07-20T15:02:08;5.27;;;1.87;;
12812;SDS011;6471;50.932;6.934;2023-07-20T15:04:34;5.27;;;1.83;;
12812;SDS011;6471;50.932;6.934;2023-07-20T15:07:00;2.37;;;1.30;;
12812;SDS011;6471;50.932;6.934;2023-07-20T15:09:27;2.10;;;1.10;;
12812;SDS011;6471;50.932;6.934;2023-07-20T15:11:53;5.77;;;1.53;;
12812;SDS011;6471;50.932;6.934;2023-07-20T15:14:19;4.70;;;1.60;;
12812;SDS011;6471;50.932;6.934;2023-07-20T15:16:45;2.13;;;1.50;;
12812;SDS011;6471;50.932;6.934;2023-07-20T15:19:11;2.90;;;1.60;;